createdAt,value
2022-12-01T00:01:20.636Z,8.15
2022-12-01T00:03:47.613Z,6.80
2022-12-01T00:06:17.247Z,7.57
2022-12-01T00:09:03.955Z,6.88
2022-12-01T00:11:30.872Z,6.97
2022-12-01T00:13:57.774Z,8.23
2022-12-01T00:16:24.684Z,7.65
2022-12-01T00:18:52.942Z,7.82
2022-12-01T00:21:22.083Z,7.18
2022-12-01T00:23:51.551Z,8.13
2022-12-01T00:26:20.045Z,8.18
2022-12-01T00:28:51.673Z,9.27
2022-12-01T00:31:18.985Z,8.45
2022-12-01T00:33:46.418Z,8.10
2022-12-01T00:36:13.319Z,6.20
2022-12-01T00:38:40.466Z,8.52
2022-12-01T00:41:07.697Z,8.18
2022-12-01T00:43:34.549Z,7.20
2022-12-01T00:46:04.384Z,7.93
2022-12-01T00:48:33.536Z,7.15
2022-12-01T00:51:00.359Z,7.38
2022-12-01T00:53:27.208Z,6.82
2022-12-01T00:55:54.161Z,6.32
2022-12-01T00:58:21.779Z,7.25
2022-12-01T01:00:49.385Z,6.93
2022-12-01T01:03:16.306Z,7.03
2022-12-01T01:05:43.942Z,6.78
2022-12-01T01:08:12.933Z,8.48
2022-12-01T01:10:44.978Z,6.85
2022-12-01T01:13:12.947Z,6.22
2022-12-01T01:15:40.249Z,7.28
2022-12-01T01:18:09.644Z,6.15
2022-12-01T01:20:36.645Z,6.50
2022-12-01T01:23:03.841Z,7.40
2022-12-01T01:25:32.881Z,6.43
2022-12-01T01:27:59.811Z,6.72
2022-12-01T01:30:26.773Z,6.72
2022-12-01T01:32:53.640Z,6.78
2022-12-01T01:35:20.553Z,7.65
2022-12-01T01:37:47.469Z,6.50
2022-12-01T01:40:14.276Z,5.88
2022-12-01T01:42:41.066Z,6.15
2022-12-01T01:45:26.362Z,6.95
2022-12-01T01:47:55.620Z,5.78
2022-12-01T01:50:27.762Z,5.72
2022-12-01T01:53:08.817Z,6.40
2022-12-01T01:55:36.687Z,6.15
2022-12-01T01:58:07.211Z,5.85
2022-12-01T02:00:34.077Z,6.30
2022-12-01T02:03:01.390Z,5.65
2022-12-01T02:05:32.320Z,4.80
2022-12-01T02:08:01.554Z,5.03
2022-12-01T02:10:59.000Z,5.00
2022-12-01T02:13:44.169Z,4.22
2022-12-01T02:16:27.777Z,5.32
2022-12-01T02:19:03.651Z,5.18
2022-12-01T02:21:33.571Z,5.18
2022-12-01T02:24:15.640Z,4.00
2022-12-01T02:26:57.063Z,4.97
2022-12-01T02:30:02.332Z,5.38
2022-12-01T02:32:37.882Z,4.53
2022-12-01T02:35:29.109Z,3.70
2022-12-01T02:38:09.486Z,4.47
2022-12-01T02:41:00.933Z,3.78
2022-12-01T02:43:32.621Z,4.32
2022-12-01T02:46:23.214Z,4.07
2022-12-01T02:48:54.162Z,3.35
2022-12-01T02:51:26.783Z,3.67
2022-12-01T02:53:55.699Z,4.53
2022-12-01T02:56:23.780Z,3.90
2022-12-01T02:58:51.104Z,3.50
2022-12-01T03:01:33.168Z,3.20
2022-12-01T03:04:15.459Z,4.00
2022-12-01T03:26:20.319Z,3.08
2022-12-01T03:28:52.405Z,3.30
2022-12-01T03:31:25.917Z,3.67
2022-12-01T03:33:58.123Z,3.47
2022-12-01T03:36:32.092Z,3.80
2022-12-01T03:39:03.233Z,2.60
2022-12-01T03:41:36.698Z,3.22
2022-12-01T03:44:09.779Z,2.10
2022-12-01T03:46:50.243Z,2.42
2022-12-01T03:49:18.582Z,2.92
2022-12-01T03:52:24.779Z,2.97
2022-12-01T03:55:02.050Z,3.05
2022-12-01T03:57:38.484Z,3.60
2022-12-01T04:00:08.037Z,3.00
2022-12-01T04:02:39.692Z,3.25
2022-12-01T04:05:09.299Z,3.47
2022-12-01T04:07:37.683Z,2.92
2022-12-01T04:10:06.274Z,2.70
2022-12-01T04:12:33.386Z,3.20
2022-12-01T04:15:08.058Z,3.10
2022-12-01T04:17:35.403Z,2.70
2022-12-01T04:20:02.366Z,3.45
2022-12-01T04:22:29.380Z,3.35
2022-12-01T04:24:56.252Z,2.72
2022-12-01T04:27:23.131Z,2.75
2022-12-01T04:29:50.181Z,2.65
2022-12-01T04:32:17.117Z,3.15
2022-12-01T04:34:44.088Z,2.65
2022-12-01T04:37:12.135Z,2.72
2022-12-01T04:39:39.077Z,2.88
2022-12-01T04:42:06.127Z,2.30
2022-12-01T04:44:34.953Z,2.40
2022-12-01T04:47:03.453Z,2.35
2022-12-01T04:49:31.503Z,1.95
2022-12-01T04:51:58.667Z,2.80
2022-12-01T04:54:25.538Z,3.03
2022-12-01T04:56:52.371Z,2.05
2022-12-01T04:59:19.391Z,1.30
2022-12-01T05:01:48.240Z,2.40
2022-12-01T05:04:15.999Z,2.42
2022-12-01T05:06:43.205Z,2.65
2022-12-01T05:09:17.092Z,2.03
2022-12-01T05:11:44.708Z,2.20
2022-12-01T05:14:11.575Z,2.17
2022-12-01T05:16:39.134Z,2.03
2022-12-01T05:19:25.256Z,2.00
2022-12-01T05:21:52.578Z,2.45
2022-12-01T05:24:20.772Z,2.10
2022-12-01T05:26:47.658Z,2.22
2022-12-01T05:29:14.862Z,2.33
2022-12-01T05:31:42.007Z,2.13
2022-12-01T05:34:09.511Z,2.22
2022-12-01T05:36:36.767Z,2.22
2022-12-01T05:39:04.404Z,1.73
2022-12-01T05:41:31.377Z,1.42
2022-12-01T05:43:58.297Z,0.52
2022-12-01T05:46:25.342Z,0.10
2022-12-01T05:48:53.853Z,0.10
2022-12-01T05:51:20.848Z,0.35
2022-12-01T05:53:47.802Z,0.55
2022-12-01T05:56:14.650Z,0.20
2022-12-01T05:58:41.561Z,0.10
2022-12-01T06:01:08.756Z,0.20
2022-12-01T06:03:35.712Z,0.10
2022-12-01T06:06:02.640Z,1.10
2022-12-01T06:08:29.434Z,0.00
2022-12-01T06:10:56.437Z,0.00
2022-12-01T06:13:24.592Z,0.17
2022-12-01T06:16:03.214Z,0.03
2022-12-01T06:18:36.415Z,0.10
2022-12-01T06:21:04.831Z,0.28
2022-12-01T06:23:32.283Z,0.30
2022-12-01T06:25:59.342Z,0.10
2022-12-01T06:28:26.267Z,0.00
2022-12-01T06:30:57.812Z,0.35
2022-12-01T06:33:26.550Z,0.43
2022-12-01T06:36:01.073Z,0.25
2022-12-01T06:40:57.758Z,0.85
2022-12-01T06:43:24.808Z,0.47
2022-12-01T06:45:56.372Z,0.00
2022-12-01T06:48:26.463Z,0.10
2022-12-01T06:50:57.581Z,0.10
2022-12-01T06:53:25.036Z,0.20
2022-12-01T06:55:51.921Z,0.15
2022-12-01T06:58:19.199Z,0.55
2022-12-01T07:00:51.753Z,0.40
2022-12-01T07:03:19.624Z,0.80
2022-12-01T07:05:56.149Z,0.13
2022-12-01T07:08:23.102Z,0.45
2022-12-01T07:11:00.406Z,1.25
2022-12-01T07:13:33.128Z,0.15
2022-12-01T07:16:03.095Z,0.20
2022-12-01T07:18:31.097Z,1.13
2022-12-01T07:21:02.627Z,0.10
2022-12-01T07:23:30.414Z,0.20
2022-12-01T07:26:07.282Z,0.35
2022-12-01T07:28:34.625Z,0.35
2022-12-01T07:31:12.534Z,0.47
2022-12-01T07:33:40.135Z,0.35
2022-12-01T07:36:07.981Z,0.08
2022-12-01T07:38:35.778Z,0.10
2022-12-01T07:41:11.086Z,0.73
2022-12-01T07:43:38.838Z,0.68
2022-12-01T07:46:08.866Z,0.22
2022-12-01T07:48:37.357Z,0.90
2022-12-01T07:51:09.024Z,0.10
2022-12-01T07:53:36.814Z,1.15
2022-12-01T07:56:08.611Z,0.52
2022-12-01T07:58:36.500Z,0.00
2022-12-01T08:01:08.103Z,0.00
2022-12-01T08:03:35.466Z,0.88
2022-12-01T08:06:03.328Z,0.63
2022-12-01T08:08:31.262Z,0.35
2022-12-01T08:11:04.670Z,0.50
2022-12-01T08:13:31.594Z,0.00
2022-12-01T08:15:58.484Z,0.10
2022-12-01T08:18:25.494Z,0.55
2022-12-01T08:20:56.223Z,0.43
2022-12-01T08:23:23.045Z,0.32
2022-12-01T08:25:49.894Z,0.98
2022-12-01T08:28:16.747Z,0.28
2022-12-01T08:30:43.621Z,1.05
2022-12-01T08:33:10.631Z,1.33
2022-12-01T08:35:37.710Z,0.82
2022-12-01T08:38:05.144Z,0.40
2022-12-01T08:40:31.995Z,0.28
2022-12-01T08:42:59.055Z,1.35
2022-12-01T08:45:25.819Z,1.35
2022-12-01T08:47:54.907Z,0.60
2022-12-01T08:50:21.821Z,0.43
2022-12-01T08:52:48.702Z,0.85
2022-12-01T08:55:15.598Z,0.10
2022-12-01T08:57:42.397Z,0.45
2022-12-01T09:00:10.311Z,0.57
2022-12-01T09:02:37.244Z,0.17
2022-12-01T09:05:05.443Z,0.60
2022-12-01T09:07:33.134Z,0.20
2022-12-01T09:09:59.993Z,0.38
2022-12-01T09:12:29.577Z,0.68
2022-12-01T09:14:56.548Z,0.43
2022-12-01T09:17:23.873Z,0.10
2022-12-01T09:19:50.944Z,0.22
2022-12-01T09:22:18.158Z,0.50
2022-12-01T09:24:45.287Z,0.70
2022-12-01T09:27:13.268Z,0.55
2022-12-01T09:29:40.169Z,0.32
2022-12-01T09:32:07.078Z,0.22
2022-12-01T09:34:33.898Z,0.65
2022-12-01T09:37:00.823Z,1.00
2022-12-01T09:39:28.750Z,0.38
2022-12-01T09:42:06.145Z,1.65
2022-12-01T09:44:41.954Z,0.98
2022-12-01T09:47:31.929Z,0.88
2022-12-01T09:50:01.293Z,0.55
2022-12-01T09:52:32.802Z,0.05
2022-12-01T09:55:01.043Z,1.75
2022-12-01T09:57:33.847Z,0.30
2022-12-01T10:00:04.688Z,1.20
2022-12-01T10:02:51.168Z,0.85
2022-12-01T10:05:26.794Z,0.82
2022-12-01T10:08:00.791Z,1.10
2022-12-01T10:10:35.841Z,1.20
2022-12-01T10:13:02.947Z,1.25
2022-12-01T10:15:49.870Z,1.15
2022-12-01T10:18:16.651Z,1.02
2022-12-01T10:21:19.305Z,0.82
2022-12-01T10:24:01.059Z,1.10
2022-12-01T10:26:55.276Z,0.70
2022-12-01T10:29:35.097Z,1.83
2022-12-01T10:32:39.163Z,1.00
2022-12-01T10:35:06.279Z,1.15
2022-12-01T10:37:33.212Z,0.32
2022-12-01T10:40:00.250Z,1.13
2022-12-01T10:42:32.643Z,1.45
2022-12-01T10:45:06.900Z,1.20
2022-12-01T10:47:34.209Z,0.57
2022-12-01T10:50:03.724Z,1.38
2022-12-01T10:52:36.684Z,0.63
2022-12-01T10:55:26.549Z,1.40
2022-12-01T10:57:56.911Z,2.13
2022-12-01T11:03:22.642Z,0.65
2022-12-01T11:05:58.156Z,1.55
2022-12-01T11:08:46.867Z,0.73
2022-12-01T11:11:28.339Z,1.30
2022-12-01T11:13:56.903Z,0.55
2022-12-01T11:16:54.156Z,0.28
2022-12-01T11:19:32.729Z,0.43
2022-12-01T11:22:01.999Z,1.73
2022-12-01T11:24:40.029Z,1.95
2022-12-01T11:27:16.451Z,0.35
2022-12-01T11:29:43.940Z,0.50
2022-12-01T11:32:35.762Z,1.30
2022-12-01T11:35:07.774Z,0.43
2022-12-01T11:37:50.477Z,0.38
2022-12-01T11:40:33.835Z,0.98
2022-12-01T11:43:04.941Z,0.20
2022-12-01T11:45:40.154Z,0.93
2022-12-01T11:48:13.172Z,1.25
2022-12-01T11:50:42.691Z,0.30
2022-12-01T11:53:31.265Z,0.77
2022-12-01T11:56:13.126Z,0.88
2022-12-01T11:58:40.558Z,0.68
2022-12-01T12:01:40.618Z,0.63
2022-12-01T12:04:32.407Z,1.17
2022-12-01T12:07:05.293Z,0.70
2022-12-01T12:09:53.460Z,0.30
2022-12-01T12:12:48.118Z,1.70
2022-12-01T12:15:22.016Z,1.27
2022-12-01T12:18:10.724Z,0.47
2022-12-01T12:20:41.152Z,1.08
2022-12-01T12:23:49.407Z,0.80
2022-12-01T12:26:16.406Z,1.17
2022-12-01T12:29:07.134Z,1.08
2022-12-01T12:31:53.326Z,0.68
2022-12-01T12:34:26.027Z,1.00
2022-12-01T12:37:07.126Z,0.15
2022-12-01T12:40:11.645Z,1.38
2022-12-01T12:43:19.615Z,1.10
2022-12-01T12:46:08.211Z,0.30
2022-12-01T12:54:33.177Z,1.60
2022-12-01T12:57:07.105Z,0.20
2022-12-01T13:00:03.693Z,0.30
2022-12-01T13:02:33.737Z,1.20
2022-12-01T13:05:19.920Z,0.55
2022-12-01T13:07:56.375Z,0.43
2022-12-01T13:10:38.183Z,0.65
2022-12-01T13:13:18.958Z,0.45
2022-12-01T13:15:48.931Z,0.00
2022-12-01T13:18:24.954Z,0.90
2022-12-01T13:20:53.739Z,0.40
2022-12-01T13:23:22.180Z,0.75
2022-12-01T13:25:53.495Z,0.00
2022-12-01T13:28:25.398Z,0.68
2022-12-01T13:31:02.058Z,1.25
2022-12-01T13:33:30.106Z,0.38
2022-12-01T13:36:38.044Z,0.10
2022-12-01T13:39:07.556Z,0.32
2022-12-01T13:41:39.780Z,0.28
2022-12-01T13:44:24.886Z,0.00
2022-12-01T13:49:42.375Z,0.55
2022-12-01T13:52:28.492Z,0.80
2022-12-01T13:55:03.564Z,0.20
2022-12-01T13:57:33.285Z,0.17
2022-12-01T14:00:00.131Z,0.70
2022-12-01T14:02:30.878Z,0.45
2022-12-01T14:05:22.439Z,0.35
2022-12-01T14:07:51.913Z,0.55
2022-12-01T14:10:31.585Z,0.10
2022-12-01T14:13:03.461Z,0.77
2022-12-01T14:15:42.538Z,0.30
2022-12-01T14:18:18.692Z,0.73
2022-12-01T14:20:47.958Z,0.60
2022-12-01T14:23:24.672Z,0.10
2022-12-01T14:26:17.291Z,0.30
2022-12-01T14:28:56.088Z,0.10
2022-12-01T14:31:24.831Z,0.75
2022-12-01T14:33:59.414Z,0.68
2022-12-01T14:39:23.563Z,1.08
2022-12-01T14:42:00.765Z,0.10
2022-12-01T14:44:36.524Z,0.00
2022-12-01T14:47:12.469Z,0.10
2022-12-01T14:50:10.192Z,0.40
2022-12-01T14:52:42.345Z,0.90
2022-12-01T14:55:43.155Z,0.60
2022-12-01T14:58:39.274Z,0.38
2022-12-01T15:01:08.516Z,0.05
2022-12-01T15:03:41.684Z,0.00
2022-12-01T15:06:09.166Z,0.13
2022-12-01T15:08:49.111Z,0.55
2022-12-01T15:11:26.470Z,0.38
2022-12-01T15:28:30.954Z,0.13
2022-12-01T15:30:58.881Z,0.05
2022-12-01T15:33:37.867Z,0.47
2022-12-01T15:36:07.386Z,0.20
2022-12-01T15:38:38.498Z,0.22
2022-12-01T15:44:03.473Z,0.00
2022-12-01T15:46:32.907Z,0.35
2022-12-01T15:49:32.623Z,0.00
2022-12-01T15:52:10.442Z,0.40
2022-12-01T15:54:38.362Z,0.98
2022-12-01T15:57:06.245Z,0.47
2022-12-01T15:59:41.770Z,0.20
2022-12-01T16:02:20.894Z,0.38
2022-12-01T16:04:49.114Z,0.28
2022-12-01T16:07:16.364Z,0.63
2022-12-01T16:09:56.206Z,0.20
2022-12-01T16:12:25.811Z,0.50
2022-12-01T16:15:07.033Z,0.20
2022-12-01T16:17:50.190Z,0.20
2022-12-01T16:20:31.288Z,0.43
2022-12-01T16:23:02.669Z,0.52
2022-12-01T16:25:35.867Z,0.63
2022-12-01T16:28:04.888Z,0.20
2022-12-01T16:30:37.776Z,0.47
2022-12-01T16:33:17.294Z,0.30
2022-12-01T16:35:44.743Z,0.25
2022-12-01T16:38:16.388Z,1.88
2022-12-01T16:40:43.954Z,0.55
2022-12-01T16:43:23.076Z,0.32
2022-12-01T16:45:56.347Z,0.30
2022-12-01T16:48:23.262Z,0.47
2022-12-01T16:50:51.411Z,0.22
2022-12-01T16:53:20.760Z,0.10
2022-12-01T16:55:56.256Z,0.00
2022-12-01T16:58:23.646Z,0.50
2022-12-01T17:00:54.284Z,0.20
2022-12-01T17:03:26.540Z,0.70
2022-12-01T17:05:58.547Z,1.38
2022-12-01T17:08:25.575Z,0.47
2022-12-01T17:10:53.086Z,1.50
2022-12-01T17:13:23.382Z,0.85
2022-12-01T17:15:53.986Z,0.70
2022-12-01T17:18:22.728Z,0.10
2022-12-01T17:20:59.916Z,0.57
2022-12-01T17:23:26.855Z,0.90
2022-12-01T17:25:54.522Z,0.50
2022-12-01T17:28:21.951Z,0.15
2022-12-01T17:30:48.898Z,0.63
2022-12-01T17:33:15.999Z,0.70
2022-12-01T17:35:42.911Z,0.65
2022-12-01T17:38:10.138Z,0.50
2022-12-01T17:40:37.202Z,0.45
2022-12-01T17:43:04.109Z,0.20
2022-12-01T17:45:32.323Z,0.13
2022-12-01T17:47:59.250Z,0.60
2022-12-01T17:50:26.126Z,1.23
2022-12-01T17:52:52.974Z,0.13
2022-12-01T17:55:19.826Z,0.93
2022-12-01T17:57:46.712Z,0.57
2022-12-01T18:00:14.383Z,0.98
2022-12-01T18:02:41.275Z,0.57
2022-12-01T18:05:08.875Z,0.43
2022-12-01T18:07:35.894Z,0.10
2022-12-01T18:10:02.954Z,0.60
2022-12-01T18:12:29.831Z,0.63
2022-12-01T18:14:56.751Z,0.40
2022-12-01T18:17:23.695Z,0.70
2022-12-01T18:19:50.646Z,0.70
2022-12-01T18:22:17.536Z,0.45
2022-12-01T18:24:44.485Z,1.08
2022-12-01T18:27:11.463Z,0.35
2022-12-01T18:29:38.338Z,0.00
2022-12-01T18:32:05.284Z,1.90
2022-12-01T18:34:32.353Z,1.17
2022-12-01T18:37:01.590Z,1.05
2022-12-01T18:39:28.872Z,0.47
2022-12-01T18:41:55.787Z,0.08
2022-12-01T18:44:22.657Z,0.60
2022-12-01T18:46:50.075Z,0.43
2022-12-01T18:49:17.232Z,1.40
2022-12-01T18:51:44.091Z,0.63
2022-12-01T18:54:13.557Z,0.63
2022-12-01T18:56:40.964Z,0.90
2022-12-01T18:59:10.415Z,0.22
2022-12-01T19:01:40.212Z,1.17
2022-12-01T19:04:08.976Z,0.63
2022-12-01T19:06:38.031Z,1.38
2022-12-01T19:09:06.611Z,0.57
2022-12-01T19:11:33.583Z,1.20
2022-12-01T19:14:00.848Z,1.00
2022-12-01T19:16:28.042Z,0.95
2022-12-01T19:18:54.993Z,0.38
2022-12-01T19:21:21.987Z,0.70
2022-12-01T19:23:49.688Z,0.47
2022-12-01T19:26:20.484Z,0.35
2022-12-01T19:28:48.331Z,1.35
2022-12-01T19:31:22.445Z,2.10
2022-12-01T19:33:50.547Z,0.82
2022-12-01T19:36:28.866Z,1.00
2022-12-01T19:38:58.065Z,0.60
2022-12-01T19:41:25.893Z,1.13
2022-12-01T19:43:54.631Z,0.13
2022-12-01T19:46:24.425Z,0.38
2022-12-01T19:49:02.859Z,0.47
2022-12-01T19:51:32.436Z,1.83
2022-12-01T19:53:59.281Z,0.30
2022-12-01T19:56:26.303Z,2.08
2022-12-01T19:58:53.121Z,0.75
2022-12-01T20:01:21.154Z,0.93
2022-12-01T20:03:50.499Z,0.63
2022-12-01T20:06:23.416Z,1.17
2022-12-01T20:08:51.058Z,0.98
2022-12-01T20:11:18.484Z,0.43
2022-12-01T20:13:46.542Z,0.38
2022-12-01T20:16:21.535Z,0.20
2022-12-01T20:18:49.411Z,0.55
2022-12-01T20:21:21.970Z,0.40
2022-12-01T20:23:58.554Z,0.75
2022-12-01T20:26:31.100Z,1.67
2022-12-01T20:29:01.822Z,0.10
2022-12-01T20:31:30.356Z,0.77
2022-12-01T20:33:59.724Z,0.57
2022-12-01T20:36:27.230Z,0.88
2022-12-01T20:38:54.503Z,0.28
2022-12-01T20:41:21.889Z,0.28
2022-12-01T20:43:48.929Z,0.25
2022-12-01T20:46:16.390Z,0.50
2022-12-01T20:48:43.510Z,0.68
2022-12-01T20:51:13.255Z,0.38
2022-12-01T20:53:47.163Z,0.25
2022-12-01T20:56:21.436Z,1.27
2022-12-01T20:58:50.169Z,0.40
2022-12-01T21:01:17.924Z,0.38
2022-12-01T21:03:46.210Z,0.30
2022-12-01T21:06:15.196Z,0.57
2022-12-01T21:08:44.077Z,0.57
2022-12-01T21:11:52.298Z,0.35
2022-12-01T21:14:30.850Z,0.10
2022-12-01T21:17:04.004Z,0.20
2022-12-01T21:20:01.766Z,0.75
2022-12-01T21:22:28.812Z,0.60
2022-12-01T21:25:10.025Z,0.38
2022-12-01T21:27:36.957Z,0.40
2022-12-01T21:30:14.532Z,0.60
2022-12-01T21:32:44.058Z,0.32
2022-12-01T21:35:16.432Z,1.00
2022-12-01T21:37:43.554Z,0.77
2022-12-01T21:40:23.679Z,0.43
2022-12-01T21:42:51.660Z,0.52
2022-12-01T21:45:28.727Z,0.65
2022-12-01T21:48:14.260Z,0.52
2022-12-01T21:50:41.137Z,0.57
2022-12-01T21:53:13.644Z,0.57
2022-12-01T21:55:43.549Z,0.80
2022-12-01T21:58:27.464Z,0.82
2022-12-01T22:00:56.741Z,0.20
2022-12-01T22:03:45.769Z,0.40
2022-12-01T22:06:46.566Z,1.38
2022-12-01T22:09:36.322Z,1.00
2022-12-01T22:12:10.085Z,0.40
2022-12-01T22:14:37.063Z,0.85
2022-12-01T22:17:06.662Z,1.05
2022-12-01T22:19:37.790Z,0.65
2022-12-01T22:22:43.719Z,0.55
2022-12-01T22:25:25.924Z,0.30
2022-12-01T22:27:53.098Z,0.40
2022-12-01T22:30:22.141Z,0.20
2022-12-01T22:33:05.492Z,0.90
2022-12-01T22:35:58.700Z,0.63
2022-12-01T22:38:35.679Z,1.40
2022-12-01T22:41:12.302Z,0.45
2022-12-01T22:43:59.980Z,1.30
2022-12-01T22:46:36.071Z,0.43
2022-12-01T22:49:19.438Z,0.20
2022-12-01T22:51:59.842Z,1.05
2022-12-01T22:54:37.434Z,1.88
2022-12-01T22:57:33.490Z,1.23
2022-12-01T23:00:22.238Z,0.35
2022-12-01T23:02:51.276Z,0.08
2022-12-01T23:05:21.564Z,0.60
2022-12-01T23:07:51.585Z,1.17
2022-12-01T23:10:20.601Z,0.40
2022-12-01T23:12:52.837Z,0.00
2022-12-01T23:15:22.885Z,1.02
2022-12-01T23:17:50.442Z,0.40
2022-12-01T23:20:32.636Z,1.45
2022-12-01T23:23:08.677Z,1.42
2022-12-01T23:25:35.798Z,0.57
2022-12-01T23:28:08.104Z,0.28
2022-12-01T23:30:36.153Z,0.20
2022-12-01T23:33:09.255Z,1.08
2022-12-01T23:35:41.467Z,0.00
2022-12-01T23:38:21.378Z,0.47
2022-12-01T23:40:50.059Z,0.80
2022-12-01T23:43:21.208Z,0.20
2022-12-01T23:45:51.186Z,1.55
2022-12-01T23:48:25.506Z,0.28
2022-12-01T23:50:54.522Z,0.65
2022-12-01T23:53:30.616Z,0.90
2022-12-01T23:56:07.278Z,0.20
2022-12-01T23:58:34.683Z,0.15
